Time;durP1;ratioP1;P1;durP2;ratioP2;P2;SDS_P1;SDS_P2;PMS_P1;PMS_P2;Temp;Humidity;BMP_temperature;BMP_pressure;BME280_temperature;BME280_humidity;BME280_pressure;Samples;Min_cycle;Max_cycle;Signal;HPM_P1;HPM_P2
2022/10/10 00:00:50;;;;;;;5.43;2.20;;;9.60;1.00;;;;;;5077255;28;20241;-67
2022/10/10 00:03:17;;;;;;;3.40;2.43;;;9.60;1.00;;;;;;5077293;28;20557;-67
2022/10/10 00:05:44;;;;;;;8.20;2.57;;;9.60;1.00;;;;;;5075706;28;20265;-67
2022/10/10 00:08:09;;;;;;;3.77;2.33;;;9.70;1.00;;;;;;5077265;28;20446;-71
2022/10/10 00:10:35;;;;;;;6.83;2.60;;;9.60;1.00;;;;;;5077353;28;20396;-67
2022/10/10 00:13:02;;;;;;;2.23;2.03;;;9.60;1.00;;;;;;5077306;28;20158;-67
2022/10/10 00:15:27;;;;;;;4.43;2.60;;;9.60;1.00;;;;;;5076039;28;20808;-71
2022/10/10 00:17:53;;;;;;;5.43;2.70;;;9.60;1.00;;;;;;5077097;28;20416;-67
2022/10/10 00:20:19;;;;;;;4.37;2.40;;;9.50;1.00;;;;;;5077142;28;20512;-67
2022/10/10 00:22:46;;;;;;;7.27;2.40;;;9.60;1.00;;;;;;5075849;28;20213;-67
2022/10/10 00:25:12;;;;;;;3.47;2.00;;;9.50;1.00;;;;;;5074909;28;20840;-70
2022/10/10 00:27:38;;;;;;;3.10;2.27;;;9.50;1.00;;;;;;5076882;28;20419;-67
2022/10/10 00:30:06;;;;;;;3.20;2.50;;;9.50;1.00;;;;;;5077032;28;20367;-70
2022/10/10 00:32:32;;;;;;;3.00;2.70;;;9.50;1.00;;;;;;5076281;28;20900;-70
2022/10/10 00:34:58;;;;;;;6.33;2.63;;;9.50;1.00;;;;;;5074920;28;20422;-68
2022/10/10 00:37:23;;;;;;;2.50;2.30;;;9.50;1.00;;;;;;5076749;28;20205;-68
2022/10/10 00:39:49;;;;;;;2.60;2.37;;;9.50;1.00;;;;;;5076787;28;20464;-70
2022/10/10 00:42:16;;;;;;;7.20;2.90;;;9.50;1.00;;;;;;5076664;28;20176;-70
2022/10/10 00:44:44;;;;;;;6.23;3.13;;;9.50;1.00;;;;;;5075938;28;20302;-71
2022/10/10 00:47:10;;;;;;;2.87;2.67;;;9.50;1.00;;;;;;5076398;28;21055;-70
2022/10/10 00:49:41;;;;;;;5.67;2.57;;;9.50;1.00;;;;;;5076095;28;20868;-71
2022/10/10 00:52:09;;;;;;;3.83;2.20;;;9.50;1.00;;;;;;5076549;28;20415;-71
2022/10/10 00:54:37;;;;;;;3.43;2.03;;;9.40;1.00;;;;;;5075644;28;20756;-70
2022/10/10 00:57:06;;;;;;;14.13;2.50;;;9.40;1.00;;;;;;5076297;28;20402;-70
2022/10/10 00:59:35;;;;;;;4.33;2.50;;;9.40;1.00;;;;;;5076278;28;20436;-71
2022/10/10 01:02:01;;;;;;;4.47;2.40;;;9.40;1.00;;;;;;5076156;28;20416;-71
2022/10/10 01:04:38;;;;;;;6.03;2.50;;;9.40;1.00;;;;;;5075587;28;20379;-67
2022/10/10 01:07:31;;;;;;;2.63;2.37;;;9.40;1.00;;;;;;5074251;28;20249;-68
2022/10/10 01:10:04;;;;;;;7.53;2.90;;;9.40;1.00;;;;;;5072723;28;20412;-70
2022/10/10 01:12:44;;;;;;;3.10;2.30;;;9.40;1.00;;;;;;5076093;28;20823;-70
2022/10/10 01:15:16;;;;;;;2.53;2.10;;;9.30;1.00;;;;;;5073972;28;20947;-70
2022/10/10 01:18:04;;;;;;;5.10;2.73;;;9.30;1.00;;;;;;5076078;28;20409;-68
2022/10/10 01:20:59;;;;;;;4.60;2.40;;;9.30;1.00;;;;;;5076093;28;20738;-71
2022/10/10 01:23:37;;;;;;;3.80;3.23;;;9.30;1.00;;;;;;5075249;28;20383;-68
2022/10/10 01:26:11;;;;;;;5.30;2.33;;;9.30;1.00;;;;;;5075825;28;20435;-68
2022/10/10 01:28:46;;;;;;;2.90;2.70;;;9.30;1.00;;;;;;5075906;28;20483;-70
2022/10/10 01:31:14;;;;;;;2.83;2.00;;;9.30;1.00;;;;;;5075856;28;20851;-71
2022/10/10 01:33:46;;;;;;;6.20;2.47;;;9.30;1.00;;;;;;5073939;28;20404;-71
2022/10/10 01:36:25;;;;;;;5.00;2.63;;;9.20;1.00;;;;;;5074625;28;20402;-70
2022/10/10 01:38:58;;;;;;;3.40;2.30;;;9.20;1.00;;;;;;5075691;28;20862;-67
2022/10/10 01:41:30;;;;;;;5.63;2.50;;;9.20;1.00;;;;;;5074565;28;20375;-70
2022/10/10 01:43:58;;;;;;;9.50;2.30;;;9.20;1.00;;;;;;5074482;28;20904;-70
2022/10/10 01:46:24;;;;;;;2.03;1.93;;;9.20;1.00;;;;;;5075452;28;20412;-70
2022/10/10 01:48:53;;;;;;;3.57;1.97;;;9.30;1.00;;;;;;5075238;28;20455;-71
2022/10/10 01:51:51;;;;;;;4.60;2.70;;;9.30;1.00;;;;;;5075483;28;20395;-71
2022/10/10 01:54:40;;;;;;;5.53;2.83;;;9.30;1.00;;;;;;5074680;28;20920;-70
2022/10/10 01:57:20;;;;;;;2.37;2.17;;;9.20;1.00;;;;;;5075213;28;20518;-70
2022/10/10 02:00:08;;;;;;;2.33;2.23;;;9.20;1.00;;;;;;5073650;28;20407;-67
2022/10/10 02:02:38;;;;;;;2.90;1.97;;;9.20;1.00;;;;;;5075020;28;20424;-71
2022/10/10 02:05:24;;;;;;;2.73;2.53;;;9.20;1.00;;;;;;5073291;28;20505;-70
2022/10/10 02:07:57;;;;;;;3.47;2.70;;;9.20;1.00;;;;;;5074826;28;20869;-70
2022/10/10 02:10:27;;;;;;;2.43;2.23;;;9.10;1.00;;;;;;5075160;28;20375;-67
2022/10/10 02:12:54;;;;;;;3.97;2.50;;;9.20;1.00;;;;;;5074749;28;20414;-70
2022/10/10 02:15:23;;;;;;;3.50;2.57;;;9.10;1.00;;;;;;5074245;28;20392;-67
2022/10/10 02:17:50;;;;;;;4.47;2.60;;;9.10;1.00;;;;;;5074377;28;20403;-68
2022/10/10 02:20:20;;;;;;;6.00;2.70;;;9.10;1.00;;;;;;5073215;28;20925;-70
2022/10/10 02:22:48;;;;;;;4.00;3.30;;;9.10;1.00;;;;;;5074457;28;20407;-67
2022/10/10 02:25:14;;;;;;;4.20;2.80;;;9.10;1.00;;;;;;5073019;28;20431;-67
2022/10/10 02:27:49;;;;;;;3.63;2.90;;;9.10;1.00;;;;;;5074689;28;20462;-71
2022/10/10 02:30:15;;;;;;;4.33;3.23;;;9.00;1.00;;;;;;5074649;28;20374;-67
2022/10/10 02:32:50;;;;;;;2.70;2.47;;;9.00;1.00;;;;;;5074484;28;20394;-70
2022/10/10 02:35:22;;;;;;;4.87;2.53;;;9.00;1.00;;;;;;5073809;28;20421;-70
2022/10/10 02:37:50;;;;;;;2.90;2.63;;;9.00;1.00;;;;;;5072951;28;20457;-70
2022/10/10 02:40:21;;;;;;;4.87;2.30;;;9.00;1.00;;;;;;5074537;28;20399;-70
2022/10/10 02:42:49;;;;;;;5.00;2.80;;;9.00;1.00;;;;;;5074339;28;20414;-67
2022/10/10 02:45:15;;;;;;;4.87;3.10;;;8.90;1.00;;;;;;5073573;28;20436;-67
2022/10/10 02:47:41;;;;;;;9.50;3.00;;;8.90;1.00;;;;;;5074260;28;20450;-71
2022/10/10 02:50:07;;;;;;;6.03;2.80;;;8.90;1.00;;;;;;5074102;28;20830;-70
2022/10/10 02:52:33;;;;;;;5.83;4.00;;;8.90;1.00;;;;;;5073030;28;20649;-67
2022/10/10 02:54:58;;;;;;;7.00;3.37;;;8.90;1.00;;;;;;5073572;28;20405;-70
2022/10/10 02:57:24;;;;;;;3.40;2.87;;;8.80;1.00;;;;;;5073767;28;20168;-71
2022/10/10 02:59:50;;;;;;;5.10;3.20;;;8.80;1.00;;;;;;5074022;28;20162;-68
2022/10/10 03:02:15;;;;;;;2.90;2.63;;;8.80;1.00;;;;;;5073674;28;20173;-68
2022/10/10 03:04:41;;;;;;;4.17;2.60;;;8.80;1.00;;;;;;5073296;28;20178;-68
2022/10/10 03:07:07;;;;;;;3.30;3.00;;;8.80;1.00;;;;;;5072525;28;20198;-71
2022/10/10 03:09:33;;;;;;;5.10;2.77;;;8.80;1.00;;;;;;5073687;28;20229;-70
2022/10/10 03:11:59;;;;;;;3.77;2.80;;;8.70;1.00;;;;;;5073815;28;20403;-71
2022/10/10 03:14:25;;;;;;;2.90;2.63;;;8.70;1.00;;;;;;5072580;28;20228;-70
2022/10/10 03:16:50;;;;;;;4.60;2.50;;;8.70;1.00;;;;;;5073012;28;20202;-67
2022/10/10 03:19:16;;;;;;;4.07;2.67;;;8.70;1.00;;;;;;5074060;28;20508;-67
2022/10/10 03:21:42;;;;;;;8.73;2.93;;;8.70;1.00;;;;;;5073966;28;20183;-70
2022/10/10 03:24:07;;;;;;;4.23;2.70;;;8.70;1.00;;;;;;5073004;28;20171;-68
2022/10/10 03:26:33;;;;;;;5.27;3.00;;;8.70;1.00;;;;;;5073456;28;20194;-67
2022/10/10 03:29:01;;;;;;;5.60;2.87;;;8.60;1.00;;;;;;5072675;28;20178;-69
2022/10/10 03:31:26;;;;;;;5.57;2.80;;;8.60;1.00;;;;;;5073742;28;20297;-67
2022/10/10 03:33:52;;;;;;;7.97;2.67;;;8.60;1.00;;;;;;5072386;28;20509;-67
2022/10/10 03:36:18;;;;;;;3.60;3.30;;;8.60;1.00;;;;;;5073542;28;20208;-67
2022/10/10 03:38:43;;;;;;;4.13;2.73;;;8.60;1.00;;;;;;5073456;28;20184;-67
2022/10/10 03:41:09;;;;;;;5.50;2.63;;;8.60;1.00;;;;;;5073587;28;20172;-70
2022/10/10 03:43:34;;;;;;;8.77;3.07;;;8.60;1.00;;;;;;5073180;28;20167;-67
2022/10/10 03:46:00;;;;;;;3.43;2.60;;;8.60;1.00;;;;;;5073104;28;20241;-70
2022/10/10 03:48:26;;;;;;;4.63;3.07;;;8.60;1.00;;;;;;5073254;28;20226;-67
2022/10/10 03:50:51;;;;;;;4.80;2.77;;;8.60;1.00;;;;;;5071968;28;20177;-67
2022/10/10 03:53:17;;;;;;;3.70;3.40;;;8.60;1.00;;;;;;5073268;28;20176;-70
2022/10/10 03:55:43;;;;;;;4.40;2.97;;;8.60;1.00;;;;;;5072396;28;20200;-70
2022/10/10 03:58:10;;;;;;;7.77;3.00;;;8.50;1.00;;;;;;5072244;28;20179;-67
2022/10/10 04:00:36;;;;;;;12.80;4.70;;;8.50;1.00;;;;;;5088943;28;20203;-71
2022/10/10 04:03:05;;;;;;;4.20;2.63;;;8.50;1.00;;;;;;5073089;28;20403;-70
2022/10/10 04:05:34;;;;;;;4.63;2.57;;;8.50;1.00;;;;;;5072474;28;20522;-70
2022/10/10 04:08:00;;;;;;;5.17;3.00;;;8.50;1.00;;;;;;5072646;28;20446;-67
2022/10/10 04:10:26;;;;;;;5.30;2.47;;;8.50;1.00;;;;;;5073169;28;20911;-68
2022/10/10 04:12:52;;;;;;;3.20;2.90;;;8.50;1.00;;;;;;5073008;28;20178;-67
2022/10/10 04:15:17;;;;;;;7.53;2.40;;;8.50;1.00;;;;;;5072422;28;20205;-70
2022/10/10 04:17:43;;;;;;;3.60;3.30;;;8.50;1.00;;;;;;5073132;28;20176;-67
2022/10/10 04:20:09;;;;;;;5.43;2.93;;;8.50;1.00;;;;;;5072228;28;20562;-67
2022/10/10 04:22:35;;;;;;;5.17;3.57;;;8.40;1.00;;;;;;5073209;28;20203;-70
2022/10/10 04:25:00;;;;;;;11.10;3.90;;;8.40;1.00;;;;;;5072233;28;20207;-67
2022/10/10 04:27:26;;;;;;;7.43;3.10;;;8.40;1.00;;;;;;5072561;28;20199;-70
2022/10/10 04:29:51;;;;;;;5.40;2.43;;;8.40;1.00;;;;;;5073012;28;20170;-70
2022/10/10 04:32:17;;;;;;;7.27;3.17;;;8.40;1.00;;;;;;5073207;28;20168;-68
2022/10/10 04:34:43;;;;;;;3.53;3.23;;;8.40;1.00;;;;;;5072167;28;20180;-68
2022/10/10 04:37:08;;;;;;;11.17;3.10;;;8.30;1.00;;;;;;5072841;28;20177;-67
2022/10/10 04:39:34;;;;;;;7.90;3.00;;;8.30;1.00;;;;;;5073016;28;20183;-68
2022/10/10 04:41:59;;;;;;;6.83;2.77;;;8.30;1.00;;;;;;5072898;28;20209;-68
2022/10/10 04:44:25;;;;;;;3.50;3.03;;;8.30;1.00;;;;;;5072777;28;20192;-68
2022/10/10 04:46:51;;;;;;;3.37;2.67;;;8.30;1.00;;;;;;5075443;28;20208;-69
2022/10/10 04:49:16;;;;;;;2.83;2.63;;;8.30;1.00;;;;;;5075141;28;20174;-67
2022/10/10 04:51:42;;;;;;;6.80;3.30;;;8.30;1.00;;;;;;5075238;28;20187;-72
2022/10/10 04:54:08;;;;;;;5.00;3.10;;;8.30;1.00;;;;;;5075869;28;20179;-73
2022/10/10 04:56:34;;;;;;;8.00;3.43;;;8.30;1.00;;;;;;5076202;28;20183;-71
2022/10/10 04:59:00;;;;;;;2.73;2.53;;;8.30;1.00;;;;;;5076251;28;20461;-70
2022/10/10 05:01:26;;;;;;;5.53;2.97;;;8.30;1.00;;;;;;5074967;28;20174;-70
2022/10/10 05:03:52;;;;;;;4.93;3.63;;;8.20;1.00;;;;;;5075079;28;20192;-70
2022/10/10 05:06:18;;;;;;;5.90;3.60;;;8.20;1.00;;;;;;5076057;28;20551;-70
2022/10/10 05:08:43;;;;;;;4.87;3.43;;;8.20;1.00;;;;;;5076084;28;20453;-70
2022/10/10 05:11:09;;;;;;;3.07;2.73;;;8.20;1.00;;;;;;5075966;28;20616;-71
2022/10/10 05:13:34;;;;;;;4.67;3.13;;;8.20;1.00;;;;;;5074578;28;20614;-67
2022/10/10 05:16:00;;;;;;;2.63;2.43;;;8.20;1.00;;;;;;5074360;28;20195;-67
2022/10/10 05:18:26;;;;;;;5.80;2.87;;;8.20;1.00;;;;;;5076112;28;20250;-66
2022/10/10 05:20:51;;;;;;;3.33;3.13;;;8.10;1.00;;;;;;5074340;28;20175;-66
2022/10/10 05:23:17;;;;;;;3.40;3.03;;;8.10;1.00;;;;;;5075977;28;20174;-70
2022/10/10 05:25:48;;;;;;;3.43;3.13;;;8.10;1.00;;;;;;5073803;28;20198;-70
2022/10/10 05:28:14;;;;;;;4.17;3.10;;;8.10;1.00;;;;;;5075886;28;20574;-70
2022/10/10 05:30:40;;;;;;;3.27;2.97;;;8.10;1.00;;;;;;5075855;28;20421;-67
2022/10/10 05:33:05;;;;;;;3.93;3.00;;;8.10;1.00;;;;;;5074521;28;20505;-67
2022/10/10 05:35:31;;;;;;;4.50;3.10;;;8.10;1.00;;;;;;5074951;28;20416;-67
2022/10/10 05:37:57;;;;;;;3.83;3.33;;;8.10;1.00;;;;;;5074264;28;20531;-67
2022/10/10 05:40:23;;;;;;;4.13;3.20;;;8.10;1.00;;;;;;5075681;28;20171;-67
2022/10/10 05:42:49;;;;;;;3.67;3.33;;;8.10;1.00;;;;;;5075578;28;20401;-67
2022/10/10 05:45:14;;;;;;;6.63;3.50;;;8.00;1.00;;;;;;5074898;28;20695;-71
2022/10/10 05:47:40;;;;;;;3.20;3.00;;;8.10;1.00;;;;;;5074044;28;20215;-67
2022/10/10 05:50:10;;;;;;;5.53;4.07;;;8.00;1.00;;;;;;5075523;28;20167;-70
2022/10/10 05:52:35;;;;;;;4.57;4.07;;;8.10;1.00;;;;;;5074406;28;20364;-70
2022/10/10 05:55:01;;;;;;;7.77;2.90;;;8.10;1.00;;;;;;5074408;28;20532;-67
2022/10/10 05:57:27;;;;;;;6.07;3.70;;;8.10;1.00;;;;;;5073910;28;20170;-68
2022/10/10 05:59:52;;;;;;;4.20;3.60;;;8.10;1.00;;;;;;5074230;28;20183;-67
2022/10/10 06:02:18;;;;;;;3.70;3.40;;;8.10;1.00;;;;;;5075385;28;20683;-70
2022/10/10 06:04:43;;;;;;;6.57;3.63;;;8.10;1.00;;;;;;5074540;28;20646;-71
2022/10/10 06:07:09;;;;;;;3.60;2.80;;;8.10;1.00;;;;;;5073976;28;20198;-69
2022/10/10 06:09:35;;;;;;;3.37;3.10;;;8.10;1.00;;;;;;5074955;28;20147;-67
2022/10/10 06:12:00;;;;;;;4.40;3.30;;;8.10;1.00;;;;;;5074946;28;20163;-67
2022/10/10 06:14:26;;;;;;;8.53;3.63;;;8.10;1.00;;;;;;5073945;28;20276;-67
2022/10/10 06:16:51;;;;;;;4.23;3.83;;;8.10;1.00;;;;;;5074829;28;20191;-68
2022/10/10 06:19:17;;;;;;;3.40;3.17;;;8.10;1.00;;;;;;5090699;28;20167;-70
2022/10/10 06:21:43;;;;;;;4.87;4.07;;;8.10;1.00;;;;;;5074697;28;20167;-72
2022/10/10 06:24:09;;;;;;;3.67;3.17;;;8.20;1.00;;;;;;5073244;28;20696;-68
2022/10/10 06:26:35;;;;;;;3.27;3.07;;;8.20;1.00;;;;;;5074809;28;20182;-67
2022/10/10 06:29:01;;;;;;;3.10;2.90;;;8.20;1.00;;;;;;5074692;28;20505;-67
2022/10/10 06:31:26;;;;;;;6.30;3.27;;;8.20;1.00;;;;;;5073308;28;20211;-68
2022/10/10 06:33:52;;;;;;;4.43;3.30;;;8.20;1.00;;;;;;5072602;28;20278;-68
2022/10/10 06:36:17;;;;;;;5.20;3.37;;;8.20;1.00;;;;;;5074412;28;20174;-68
2022/10/10 06:38:45;;;;;;;4.63;3.47;;;8.30;1.00;;;;;;5074572;28;20178;-70
2022/10/10 06:41:11;;;;;;;5.83;3.40;;;8.30;1.00;;;;;;5074552;28;20178;-70
2022/10/10 06:43:37;;;;;;;5.67;3.57;;;8.40;1.00;;;;;;5073764;28;20404;-69
2022/10/10 06:46:04;;;;;;;6.20;3.97;;;8.40;1.00;;;;;;5074106;28;20429;-67
2022/10/10 06:48:31;;;;;;;6.67;3.70;;;8.40;1.00;;;;;;5072545;28;20201;-67
2022/10/10 06:51:07;;;;;;;10.23;4.37;;;8.50;1.00;;;;;;5074289;28;20408;-71
2022/10/10 06:53:33;;;;;;;4.37;3.80;;;8.50;1.00;;;;;;5074080;28;20393;-71
2022/10/10 06:55:59;;;;;;;5.73;3.20;;;8.60;1.00;;;;;;5073479;28;20996;-71
2022/10/10 06:58:27;;;;;;;3.80;3.43;;;8.70;1.00;;;;;;5073985;28;20426;-67
2022/10/10 07:00:54;;;;;;;4.83;3.90;;;8.70;1.00;;;;;;5074201;28;20168;-70
2022/10/10 07:03:20;;;;;;;3.40;3.20;;;8.60;1.00;;;;;;5073847;28;20511;-68
2022/10/10 07:05:54;;;;;;;3.30;3.10;;;8.70;1.00;;;;;;5072848;28;20474;-67
2022/10/10 07:08:21;;;;;;;3.57;3.27;;;8.70;1.00;;;;;;5073388;28;20451;-71
2022/10/10 07:10:47;;;;;;;3.90;3.40;;;8.80;1.00;;;;;;5073845;28;20456;-70
2022/10/10 07:13:13;;;;;;;9.10;3.43;;;8.90;1.00;;;;;;5073880;28;20398;-67
2022/10/10 07:15:39;;;;;;;5.33;3.83;;;9.00;1.00;;;;;;5073054;28;20183;-70
2022/10/10 07:18:05;;;;;;;8.23;3.83;;;9.00;1.00;;;;;;5073657;28;20406;-70
2022/10/10 07:20:31;;;;;;;4.63;4.30;;;9.10;1.00;;;;;;5073566;28;20395;-67
2022/10/10 07:22:57;;;;;;;5.20;3.40;;;9.20;1.00;;;;;;5073318;28;20170;-67
2022/10/10 07:25:23;;;;;;;5.40;3.90;;;9.30;1.00;;;;;;5071845;28;20486;-67
2022/10/10 07:27:48;;;;;;;5.53;3.00;;;9.40;1.00;;;;;;5073735;28;20186;-70
2022/10/10 07:30:14;;;;;;;3.53;3.23;;;9.40;1.00;;;;;;5073664;28;20638;-69
2022/10/10 07:32:40;;;;;;;3.50;3.20;;;9.50;1.00;;;;;;5073405;28;20200;-70
2022/10/10 07:35:06;;;;;;;4.47;3.17;;;9.60;1.00;;;;;;5072836;28;20679;-70
2022/10/10 07:37:31;;;;;;;3.60;3.10;;;9.70;1.00;;;;;;5073523;28;20174;-67
2022/10/10 07:39:57;;;;;;;5.00;3.47;;;9.80;1.00;;;;;;5073338;28;20386;-66
2022/10/10 07:42:23;;;;;;;3.40;3.20;;;9.80;1.00;;;;;;5073457;28;20181;-70
2022/10/10 07:44:48;;;;;;;5.73;3.00;;;9.90;1.00;;;;;;5072639;28;20173;-71
2022/10/10 07:47:14;;;;;;;4.67;3.30;;;9.90;1.00;;;;;;5073349;28;20207;-68
2022/10/10 07:49:40;;;;;;;3.17;2.93;;;10.00;1.00;;;;;;5073457;28;20202;-67
2022/10/10 07:52:05;;;;;;;4.93;3.17;;;10.00;1.00;;;;;;5072110;28;20179;-71
2022/10/10 07:54:31;;;;;;;4.73;3.50;;;10.00;1.00;;;;;;5072549;28;20281;-68
2022/10/10 07:56:57;;;;;;;3.50;3.20;;;10.00;1.00;;;;;;5072752;28;20197;-70
2022/10/10 07:59:23;;;;;;;4.63;3.23;;;10.10;1.00;;;;;;5073333;28;20382;-67
2022/10/10 08:01:49;;;;;;;3.53;3.30;;;10.20;1.00;;;;;;5071862;28;20597;-67
2022/10/10 08:04:15;;;;;;;3.10;2.90;;;10.20;1.00;;;;;;5071086;28;20750;-67
2022/10/10 08:06:41;;;;;;;3.97;3.60;;;10.30;1.00;;;;;;5071643;28;20432;-71
2022/10/10 08:09:07;;;;;;;3.80;3.17;;;10.40;1.00;;;;;;5073257;28;20435;-68
2022/10/10 08:11:33;;;;;;;7.00;3.60;;;10.50;1.00;;;;;;5073210;28;20408;-67
2022/10/10 08:13:58;;;;;;;3.30;3.10;;;10.50;1.00;;;;;;5071179;28;20170;-67
2022/10/10 08:16:24;;;;;;;3.97;3.67;;;10.60;1.00;;;;;;5072526;28;20550;-67
2022/10/10 08:18:50;;;;;;;6.77;3.50;;;10.60;1.00;;;;;;5073148;28;20170;-71
2022/10/10 08:21:16;;;;;;;4.37;3.30;;;10.70;1.00;;;;;;5077190;28;20166;-67
2022/10/10 08:23:42;;;;;;;4.43;4.07;;;10.80;1.00;;;;;;5076461;28;20504;-67
2022/10/10 08:26:10;;;;;;;4.30;3.90;;;10.90;1.00;;;;;;5076901;28;20406;-70
2022/10/10 08:28:37;;;;;;;7.27;3.47;;;11.00;1.00;;;;;;5076959;28;20543;-70
2022/10/10 08:31:12;;;;;;;3.50;3.20;;;11.10;1.00;;;;;;5076969;28;20375;-70
2022/10/10 08:33:38;;;;;;;8.77;3.27;;;11.30;1.00;;;;;;5075997;28;20414;-72
2022/10/10 08:36:16;;;;;;;8.73;4.40;;;11.40;1.00;;;;;;5076648;28;20887;-67
2022/10/10 08:38:42;;;;;;;3.87;2.70;;;11.50;1.00;;;;;;5076822;28;20420;-68
2022/10/10 08:41:24;;;;;;;4.00;3.50;;;11.60;1.00;;;;;;5075313;28;20386;-68
2022/10/10 08:43:54;;;;;;;5.00;3.23;;;11.70;1.00;;;;;;5076000;28;20479;-68
2022/10/10 08:46:26;;;;;;;8.30;4.47;;;11.90;1.00;;;;;;5076613;28;20798;-70
2022/10/10 08:48:56;;;;;;;4.13;3.13;;;12.00;1.00;;;;;;5075174;28;20934;-68
2022/10/10 08:51:30;;;;;;;5.83;3.90;;;12.10;1.00;;;;;;5076491;28;20382;-69
2022/10/10 08:54:00;;;;;;;8.43;4.80;;;12.30;1.00;;;;;;5075221;28;20450;-71
2022/10/10 08:56:30;;;;;;;4.73;3.70;;;12.40;1.00;;;;;;5076424;28;20415;-69
2022/10/10 08:59:26;;;;;;;5.23;2.67;;;12.60;1.00;;;;;;5075029;28;20391;-70
2022/10/10 09:01:57;;;;;;;5.17;2.83;;;12.70;1.00;;;;;;5076497;28;20478;-67
2022/10/10 09:04:23;;;;;;;6.50;2.80;;;12.90;1.00;;;;;;5075528;28;20392;-68
2022/10/10 09:07:03;;;;;;;3.70;3.40;;;13.00;1.00;;;;;;5076031;28;20444;-67
2022/10/10 09:09:47;;;;;;;4.10;3.70;;;13.20;1.00;;;;;;5075838;28;20232;-68
2022/10/10 09:12:21;;;;;;;5.20;3.40;;;13.40;1.00;;;;;;5076191;28;20737;-68
2022/10/10 09:15:02;;;;;;;2.90;2.70;;;13.70;1.00;;;;;;5075227;28;20694;-67
2022/10/10 09:17:38;;;;;;;3.73;2.97;;;13.90;1.00;;;;;;5075921;28;20966;-68
2022/10/10 09:20:34;;;;;;;5.07;3.53;;;14.10;1.00;;;;;;5076079;28;20389;-68
2022/10/10 09:23:02;;;;;;;3.00;2.70;;;14.40;1.00;;;;;;5074495;28;20416;-69
2022/10/10 09:25:41;;;;;;;4.53;2.83;;;14.60;1.00;;;;;;5075063;28;20429;-68
2022/10/10 09:28:20;;;;;;;3.20;2.60;;;14.80;1.00;;;;;;5075706;28;20421;-68
2022/10/10 09:30:51;;;;;;;5.10;2.67;;;14.90;1.00;;;;;;5090672;28;20367;-68
2022/10/10 09:33:20;;;;;;;4.33;2.77;;;14.90;1.00;;;;;;5074372;28;20458;-68
2022/10/10 09:35:48;;;;;;;2.97;2.77;;;15.00;1.00;;;;;;5075035;28;20406;-68
2022/10/10 09:38:34;;;;;;;5.57;3.63;;;15.20;1.00;;;;;;5075734;28;20379;-68
2022/10/10 09:41:14;;;;;;;4.20;3.40;;;15.40;1.00;;;;;;5075706;28;20408;-67
2022/10/10 09:43:41;;;;;;;7.53;2.73;;;15.60;1.00;;;;;;5074788;28;20406;-71
2022/10/10 09:46:06;;;;;;;3.87;2.83;;;15.90;1.00;;;;;;5074729;28;20424;-71
2022/10/10 09:48:35;;;;;;;5.67;3.23;;;16.30;1.00;;;;;;5075173;28;20527;-71
2022/10/10 09:51:11;;;;;;;3.17;2.83;;;16.50;1.00;;;;;;5075284;28;20523;-69
2022/10/10 09:53:37;;;;;;;3.50;3.20;;;16.40;1.00;;;;;;5074693;28;20402;-73
2022/10/10 09:56:04;;;;;;;4.60;2.90;;;16.80;1.00;;;;;;5075430;28;20420;-70
2022/10/10 09:58:42;;;;;;;4.77;2.80;;;17.00;1.00;;;;;;5075357;28;20201;-69
2022/10/10 10:01:13;;;;;;;6.23;3.87;;;17.10;1.00;;;;;;5075315;28;20404;-69
2022/10/10 10:03:39;;;;;;;3.20;3.00;;;17.40;1.00;;;;;;5074020;28;20411;-69
2022/10/10 10:06:04;;;;;;;3.93;2.50;;;17.30;1.00;;;;;;5075118;28;20900;-71
2022/10/10 10:08:35;;;;;;;3.93;2.43;;;17.30;1.00;;;;;;5075294;28;20255;-69
2022/10/10 10:11:02;;;;;;;3.40;2.73;;;17.00;1.00;;;;;;5075037;28;20162;-70
2022/10/10 10:13:33;;;;;;;5.27;3.10;;;17.10;1.00;;;;;;5074742;28;20870;-70
2022/10/10 10:16:08;;;;;;;4.03;3.10;;;17.10;1.00;;;;;;5074359;28;20427;-69
2022/10/10 10:18:45;;;;;;;9.70;2.93;;;16.90;1.00;;;;;;5074994;28;20439;-70
2022/10/10 10:21:14;;;;;;;5.77;2.63;;;17.00;1.00;;;;;;5074699;28;20396;-70
2022/10/10 10:23:51;;;;;;;2.50;2.23;;;17.10;1.00;;;;;;5073780;28;20446;-70
2022/10/10 10:26:42;;;;;;;8.30;2.93;;;17.30;1.00;;;;;;5074666;28;20432;-72
2022/10/10 10:29:38;;;;;;;2.70;2.50;;;17.80;1.00;;;;;;5073428;28;20463;-69
2022/10/10 10:32:09;;;;;;;2.87;2.60;;;17.90;1.00;;;;;;5065745;28;20424;-69
2022/10/10 10:35:03;;;;;;;5.63;3.17;;;17.30;1.00;;;;;;5074087;28;20892;-71
2022/10/10 10:37:50;;;;;;;7.30;3.20;;;16.70;1.00;;;;;;5074650;28;20430;-73
2022/10/10 10:40:36;;;;;;;3.93;2.70;;;16.30;1.00;;;;;;5073984;28;20966;-70
2022/10/10 10:43:26;;;;;;;4.90;3.20;;;16.00;1.00;;;;;;5073867;28;20400;-70
2022/10/10 10:46:19;;;;;;;5.03;2.70;;;16.00;1.00;;;;;;5073768;28;20425;-71
2022/10/10 10:48:55;;;;;;;10.30;3.30;;;16.10;1.00;;;;;;5074332;28;20440;-70
2022/10/10 10:51:24;;;;;;;5.70;2.90;;;15.80;1.00;;;;;;5074248;28;20746;-71
2022/10/10 10:54:31;;;;;;;4.97;3.13;;;15.90;1.00;;;;;;5073453;28;20407;-71
2022/10/10 10:57:08;;;;;;;5.37;3.20;;;15.90;1.00;;;;;;5073483;28;20839;-71
2022/10/10 10:59:40;;;;;;;3.30;3.00;;;16.00;1.00;;;;;;5074032;28;20738;-71
2022/10/10 11:02:05;;;;;;;5.50;3.40;;;16.10;1.00;;;;;;5073904;28;20408;-71
2022/10/10 11:04:40;;;;;;;3.57;2.57;;;16.20;1.00;;;;;;5073435;28;20400;-71
2022/10/10 11:07:16;;;;;;;5.13;3.53;;;16.30;1.00;;;;;;5073918;28;20236;-70
2022/10/10 11:10:00;;;;;;;3.60;2.90;;;16.40;1.00;;;;;;5072819;28;20461;-70
2022/10/10 11:12:55;;;;;;;8.53;3.40;;;16.40;1.00;;;;;;5073774;28;20408;-71
2022/10/10 11:15:26;;;;;;;3.97;3.40;;;16.40;1.00;;;;;;5035487;28;20443;-71
2022/10/10 11:18:02;;;;;;;4.43;3.37;;;16.50;1.00;;;;;;5072254;28;20784;-71
2022/10/10 11:20:47;;;;;;;9.10;3.80;;;16.70;1.00;;;;;;5073657;28;20416;-70
2022/10/10 11:23:20;;;;;;;8.13;3.20;;;16.80;1.00;;;;;;5073619;28;20404;-71
2022/10/10 11:25:59;;;;;;;7.80;3.10;;;16.80;1.00;;;;;;5073006;28;20440;-70
2022/10/10 11:28:43;;;;;;;3.37;3.07;;;16.70;1.00;;;;;;5073375;28;20440;-70
2022/10/10 11:31:20;;;;;;;5.20;2.60;;;16.70;1.00;;;;;;5073643;28;20404;-70
2022/10/10 11:33:51;;;;;;;5.50;3.17;;;16.90;1.00;;;;;;5072377;28;20431;-71
2022/10/10 11:36:19;;;;;;;10.47;3.20;;;17.00;1.00;;;;;;5073409;28;20408;-73
2022/10/10 11:38:58;;;;;;;6.80;2.90;;;17.00;1.00;;;;;;5073755;28;20400;-71
2022/10/10 11:41:39;;;;;;;6.80;3.17;;;16.90;1.00;;;;;;5072136;28;20781;-71
2022/10/10 11:44:27;;;;;;;6.67;3.20;;;16.70;1.00;;;;;;5072684;28;20448;-72
2022/10/10 11:47:10;;;;;;;9.77;3.73;;;16.80;1.00;;;;;;5073244;28;20440;-71
2022/10/10 11:49:39;;;;;;;6.00;3.30;;;17.00;1.00;;;;;;5072850;28;20957;-71
2022/10/10 11:52:23;;;;;;;8.00;4.00;;;17.10;1.00;;;;;;5073348;28;20545;-76
2022/10/10 11:54:49;;;;;;;3.40;3.10;;;17.10;1.00;;;;;;5072490;28;20408;-69
2022/10/10 11:57:32;;;;;;;6.60;3.67;;;16.80;1.00;;;;;;5073385;28;20402;-71
2022/10/10 12:00:05;;;;;;;7.73;3.90;;;16.60;1.00;;;;;;5073347;28;20654;-70
2022/10/10 12:02:35;;;;;;;3.63;3.10;;;16.60;1.00;;;;;;5073044;28;20785;-71
2022/10/10 12:05:04;;;;;;;3.17;2.87;;;16.70;1.00;;;;;;5072555;28;20531;-71
2022/10/10 12:07:40;;;;;;;4.00;3.00;;;17.00;1.00;;;;;;5073205;28;20472;-72
2022/10/10 12:10:17;;;;;;;5.77;3.43;;;17.20;1.00;;;;;;5072881;28;20392;-71
2022/10/10 12:12:46;;;;;;;6.73;3.43;;;17.20;1.00;;;;;;5071873;28;20845;-71
2022/10/10 12:15:23;;;;;;;5.93;3.20;;;17.40;1.00;;;;;;5072458;28;20428;-71
2022/10/10 12:17:49;;;;;;;11.80;3.63;;;17.50;1.00;;;;;;5073090;28;20407;-71
2022/10/10 12:20:20;;;;;;;5.57;3.53;;;17.40;1.00;;;;;;5073073;28;20408;-73
2022/10/10 12:23:23;;;;;;;4.87;3.07;;;17.40;1.00;;;;;;5073007;28;20204;-72
2022/10/10 12:25:49;;;;;;;4.70;2.93;;;17.40;1.00;;;;;;5072020;28;20416;-70
2022/10/10 12:28:36;;;;;;;4.10;3.40;;;17.40;1.00;;;;;;5072893;28;20513;-70
2022/10/10 12:31:02;;;;;;;3.90;3.00;;;17.60;1.00;;;;;;5072916;28;20623;-71
2022/10/10 12:33:27;;;;;;;4.67;2.93;;;18.10;1.00;;;;;;5072912;28;20459;-69
2022/10/10 12:35:53;;;;;;;6.23;3.07;;;18.50;1.00;;;;;;5072386;28;20198;-73
2022/10/10 12:38:24;;;;;;;4.80;3.10;;;19.10;1.00;;;;;;5073242;28;20163;-71
2022/10/10 12:41:08;;;;;;;3.20;2.90;;;19.40;1.00;;;;;;5072999;28;20524;-71
2022/10/10 12:44:03;;;;;;;6.13;2.80;;;19.90;1.00;;;;;;5072456;28;20817;-71
2022/10/10 12:46:30;;;;;;;5.60;2.97;;;20.20;1.00;;;;;;5055914;28;20455;-71
2022/10/10 12:49:16;;;;;;;3.37;2.90;;;20.20;1.00;;;;;;5072750;28;20452;-71
2022/10/10 12:51:44;;;;;;;5.00;3.00;;;20.90;1.00;;;;;;5073031;28;20400;-71
2022/10/10 12:54:26;;;;;;;3.40;2.40;;;21.70;1.00;;;;;;5072112;28;20405;-71
2022/10/10 12:57:07;;;;;;;2.80;2.07;;;21.60;1.00;;;;;;5072697;28;20421;-69
2022/10/10 12:59:35;;;;;;;4.87;3.07;;;21.10;1.00;;;;;;5072745;28;20836;-70
2022/10/10 13:02:19;;;;;;;2.93;2.60;;;20.50;1.00;;;;;;5072302;28;20484;-70
2022/10/10 13:04:46;;;;;;;9.30;3.60;;;20.40;1.00;;;;;;5071949;28;20453;-69
2022/10/10 13:07:18;;;;;;;5.10;4.60;;;19.70;1.00;;;;;;5076126;28;20897;-71
2022/10/10 13:09:46;;;;;;;6.10;3.13;;;19.20;1.00;;;;;;5076204;28;20411;-70
2022/10/10 13:12:33;;;;;;;4.07;3.47;;;18.90;1.00;;;;;;5076202;28;20483;-70
2022/10/10 13:14:58;;;;;;;3.17;2.90;;;19.30;1.00;;;;;;5075338;28;20755;-71
2022/10/10 13:17:36;;;;;;;4.33;3.10;;;19.80;1.00;;;;;;5074771;28;20409;-70
2022/10/10 13:20:24;;;;;;;4.10;3.13;;;20.40;1.00;;;;;;5076107;28;20247;-70